Time;durP1;ratioP1;P1;durP2;ratioP2;P2;SDS_P1;SDS_P2;PMS_P1;PMS_P2;Temp;Humidity;BMP_temperature;BMP_pressure;BME280_temperature;BME280_humidity;BME280_pressure;Samples;Min_cycle;Max_cycle;Signal;HPM_P1;HPM_P2
2021/07/30 04:16:56;;;;;;;8.45;6.53;;;;;;;12.30;98.17;98447.91;5249480;23;20536;-70
2021/07/30 04:19:21;;;;;;;10.55;6.38;;;;;;;12.35;98.07;98438.22;4938001;29;20024;-72
2021/07/30 04:21:48;;;;;;;8.05;6.28;;;;;;;12.36;98.06;98439.91;4937811;29;20436;-70
2021/07/30 04:24:13;;;;;;;9.20;6.47;;;;;;;12.43;97.94;98436.25;4937822;29;20034;-71
2021/07/30 04:26:38;;;;;;;11.27;6.47;;;;;;;12.38;97.54;98438.16;4937791;29;20020;-71
2021/07/30 04:29:04;;;;;;;8.10;6.53;;;;;;;12.33;97.27;98438.28;4937566;29;20035;-72
2021/07/30 04:31:29;;;;;;;12.40;6.40;;;;;;;12.43;96.91;98438.84;4976228;23;20413;-72
2021/07/30 04:33:56;;;;;;;9.48;6.13;;;;;;;12.38;96.98;98438.16;4937507;29;20036;-72
2021/07/30 04:36:21;;;;;;;7.75;6.43;;;;;;;12.34;97.04;98442.56;4937601;29;20028;-74
2021/07/30 04:38:46;;;;;;;8.15;5.88;;;;;;;12.54;96.26;98439.34;4937553;29;20542;-74
2021/07/30 04:41:12;;;;;;;7.25;5.50;;;;;;;12.64;95.54;98449.47;4937333;29;20024;-74
2021/07/30 04:43:38;;;;;;;6.65;5.88;;;;;;;12.67;95.25;98438.94;4937571;29;20148;-75
2021/07/30 04:46:03;;;;;;;8.10;6.05;;;;;;;12.63;94.88;98442.56;4937459;29;20086;-75
2021/07/30 04:48:29;;;;;;;8.07;5.53;;;;;;;12.68;95.06;98440.69;4937493;29;20103;-74
2021/07/30 04:50:54;;;;;;;10.15;5.80;;;;;;;12.61;95.28;98437.41;4937152;29;20023;-74
2021/07/30 04:53:19;;;;;;;8.73;5.78;;;;;;;12.73;95.04;98428.38;4937154;29;20392;-75
2021/07/30 04:55:45;;;;;;;6.75;6.03;;;;;;;12.63;95.00;98433.03;4937308;29;20094;-75
2021/07/30 04:58:10;;;;;;;9.18;6.47;;;;;;;12.69;95.43;98437.16;4937268;29;20074;-74
2021/07/30 05:00:35;;;;;;;10.20;6.22;;;;;;;12.59;95.21;98432.25;4937237;29;20020;-73
2021/07/30 05:03:01;;;;;;;8.13;5.95;;;;;;;12.73;95.49;98433.59;4933631;29;20874;-73
2021/07/30 05:05:30;;;;;;;8.57;6.57;;;;;;;12.94;93.72;98434.63;4928852;29;20059;-72
2021/07/30 05:07:55;;;;;;;8.32;5.72;;;;;;;12.91;93.55;98433.00;4926299;29;20027;-72
2021/07/30 05:10:21;;;;;;;9.25;5.82;;;;;;;12.90;94.17;98435.63;4930647;29;20116;-75
2021/07/30 05:12:46;;;;;;;9.05;6.15;;;;;;;12.96;93.80;98431.09;4934464;29;20031;-75
2021/07/30 05:15:12;;;;;;;9.23;6.22;;;;;;;12.99;94.12;98436.16;4933866;29;20030;-74
2021/07/30 05:17:37;;;;;;;12.60;6.35;;;;;;;13.05;93.70;98429.91;4932959;29;20031;-74
2021/07/30 05:20:03;;;;;;;7.70;6.43;;;;;;;13.18;93.42;98426.00;4934867;29;20099;-74
2021/07/30 05:22:28;;;;;;;9.90;6.00;;;;;;;13.30;92.15;98424.78;4934288;29;20020;-75
2021/07/30 05:24:54;;;;;;;9.45;5.53;;;;;;;13.38;92.47;98423.56;4929029;29;20102;-74
2021/07/30 05:27:19;;;;;;;7.97;6.25;;;;;;;13.42;92.45;98433.88;4934179;29;20366;-74
2021/07/30 05:29:45;;;;;;;12.13;6.15;;;;;;;13.40;92.18;98430.50;4931293;29;20075;-74
2021/07/30 05:32:10;;;;;;;10.52;5.65;;;;;;;13.57;91.78;98434.19;4927620;29;20028;-74
2021/07/30 05:34:36;;;;;;;7.40;5.32;;;;;;;13.62;91.77;98431.44;4930957;29;20016;-75
2021/07/30 05:37:01;;;;;;;8.60;6.72;;;;;;;13.52;91.64;98435.25;4931129;29;20442;-75
2021/07/30 05:39:26;;;;;;;10.45;5.93;;;;;;;13.65;92.04;98427.88;4929149;29;20027;-74
2021/07/30 05:41:52;;;;;;;10.70;6.05;;;;;;;13.59;91.85;98434.16;4934067;29;20023;-73
2021/07/30 05:44:17;;;;;;;10.60;6.13;;;;;;;13.65;92.10;98435.69;4933982;29;20028;-75
2021/07/30 05:46:42;;;;;;;10.57;5.90;;;;;;;13.86;91.58;98437.50;4932920;29;20046;-74
2021/07/30 05:49:08;;;;;;;10.63;6.45;;;;;;;14.06;90.37;98437.59;4930624;29;20063;-75
2021/07/30 05:51:35;;;;;;;13.43;6.35;;;;;;;14.38;89.49;98435.53;4925850;29;20109;-74
2021/07/30 05:54:00;;;;;;;8.88;6.28;;;;;;;14.40;88.98;98431.09;4930565;29;20034;-74
2021/07/30 05:56:26;;;;;;;10.50;6.05;;;;;;;14.61;88.20;98434.69;4933798;29;20055;-75
2021/07/30 05:58:51;;;;;;;8.98;6.00;;;;;;;14.87;87.38;98433.59;4933429;29;20393;-74
2021/07/30 06:01:16;;;;;;;10.93;5.80;;;;;;;14.91;86.91;98437.78;4933351;29;20114;-75
2021/07/30 06:03:42;;;;;;;12.93;6.10;;;;;;;15.11;85.64;98429.13;4932991;29;20590;-75
2021/07/30 06:06:07;;;;;;;7.55;5.82;;;;;;;15.16;85.19;98433.25;4930859;29;20078;-74
2021/07/30 06:08:32;;;;;;;7.25;5.80;;;;;;;14.97;86.47;98432.31;4921030;29;20031;-74
2021/07/30 06:10:57;;;;;;;11.65;5.53;;;;;;;15.24;86.30;98434.69;4929158;29;20024;-74
2021/07/30 06:13:23;;;;;;;8.15;5.90;;;;;;;15.23;85.14;98427.75;4932456;29;20026;-74
2021/07/30 06:15:48;;;;;;;6.22;5.50;;;;;;;15.51;84.28;98423.06;4933731;29;20106;-74
2021/07/30 06:18:14;;;;;;;8.45;5.88;;;;;;;15.80;83.63;98418.34;4933164;29;20085;-74
2021/07/30 06:20:39;;;;;;;10.05;5.90;;;;;;;15.86;81.98;98418.09;4932958;29;20090;-74
2021/07/30 06:23:04;;;;;;;8.57;5.82;;;;;;;15.92;82.81;98413.41;4932555;29;20023;-74
2021/07/30 06:25:30;;;;;;;12.48;6.05;;;;;;;15.98;82.76;98407.06;4933568;29;20019;-74
2021/07/30 06:27:55;;;;;;;7.30;5.45;;;;;;;16.19;81.68;98406.06;4933073;29;20388;-74
2021/07/30 06:30:21;;;;;;;7.85;5.38;;;;;;;16.54;80.66;98400.94;4932378;29;20059;-74
2021/07/30 06:32:46;;;;;;;6.70;4.95;;;;;;;16.36;82.16;98401.81;4932790;29;20050;-74
2021/07/30 06:35:14;;;;;;;8.88;5.90;;;;;;;16.26;81.28;98395.34;4932073;29;20736;-74
2021/07/30 06:37:40;;;;;;;7.38;5.65;;;;;;;16.48;80.80;98403.00;4933129;29;20086;-74
2021/07/30 06:40:06;;;;;;;7.20;5.13;;;;;;;16.64;80.72;98407.41;4933576;29;20023;-74
2021/07/30 06:42:33;;;;;;;7.57;5.47;;;;;;;16.98;78.63;98405.78;4933605;29;20023;-74
2021/07/30 06:44:58;;;;;;;8.02;5.38;;;;;;;17.44;78.59;98393.81;4927944;29;20019;-74
2021/07/30 06:47:24;;;;;;;9.07;5.40;;;;;;;17.23;77.58;98394.09;4926228;29;20026;-74
2021/07/30 06:49:50;;;;;;;7.18;4.72;;;;;;;17.78;77.29;98396.47;4929624;29;20509;-74
2021/07/30 06:52:16;;;;;;;9.30;4.80;;;;;;;18.12;74.77;98396.31;4928826;29;20035;-74
2021/07/30 06:54:41;;;;;;;8.55;5.25;;;;;;;18.42;73.70;98390.31;4932534;29;20027;-75
2021/07/30 06:57:07;;;;;;;7.22;4.65;;;;;;;19.23;69.71;98391.75;4929603;29;20027;-75
2021/07/30 06:59:33;;;;;;;6.78;4.45;;;;;;;20.44;67.22;98375.53;4931917;29;20494;-73
2021/07/30 07:02:01;;;;;;;11.43;4.07;;;;;;;21.21;62.73;98376.63;4932066;29;20114;-73
2021/07/30 07:04:27;;;;;;;8.20;4.47;;;;;;;22.26;58.88;98376.34;4928303;29;20078;-73
2021/07/30 07:06:52;;;;;;;5.78;4.18;;;;;;;23.60;55.64;98373.34;4931922;29;20023;-73
2021/07/30 07:09:18;;;;;;;7.35;3.75;;;;;;;24.05;53.84;98362.78;4932205;29;20078;-73
2021/07/30 07:11:44;;;;;;;9.32;3.90;;;;;;;26.17;48.31;98365.28;4931448;29;20040;-73
2021/07/30 07:14:09;;;;;;;10.20;4.10;;;;;;;25.55;48.82;98363.63;4926419;29;20110;-73
2021/07/30 07:16:35;;;;;;;11.82;3.85;;;;;;;25.28;48.62;98366.81;4929109;29;20474;-74
2021/07/30 07:19:00;;;;;;;7.38;3.42;;;;;;;25.60;48.46;98356.09;4929206;29;20023;-73
2021/07/30 07:21:26;;;;;;;8.32;3.15;;;;;;;27.53;43.88;98354.66;4930427;29;20167;-71
2021/07/30 07:23:51;;;;;;;8.90;3.40;;;;;;;29.20;40.25;98352.50;4928410;29;20026;-73
2021/07/30 07:26:18;;;;;;;4.75;2.95;;;;;;;27.46;44.24;98354.41;4928160;29;20024;-72
2021/07/30 07:28:44;;;;;;;8.20;2.95;;;;;;;27.45;43.84;98351.88;4934423;29;20027;-71
2021/07/30 07:31:10;;;;;;;3.17;2.75;;;;;;;30.07;37.37;98346.16;4929127;29;20024;-70
2021/07/30 07:33:35;;;;;;;9.07;3.22;;;;;;;27.73;41.14;98356.31;4925114;29;20516;-71
2021/07/30 07:36:00;;;;;;;5.72;2.80;;;;;;;28.66;40.28;98352.53;4929108;29;20150;-71
2021/07/30 07:38:26;;;;;;;6.03;2.70;;;;;;;29.42;39.04;98346.66;4927703;29;20047;-71
2021/07/30 07:40:51;;;;;;;6.85;3.00;;;;;;;30.62;37.23;98340.31;4930210;29;20020;-72
2021/07/30 07:43:16;;;;;;;5.60;2.47;;;;;;;30.96;36.57;98353.56;4934497;29;20055;-71
2021/07/30 07:45:42;;;;;;;4.22;2.50;;;;;;;30.79;35.40;98346.53;4931524;29;20043;-71
2021/07/30 07:48:07;;;;;;;3.08;2.75;;;;;;;30.12;36.78;98340.31;4935818;29;20098;-71
2021/07/30 07:50:33;;;;;;;2.83;2.63;;;;;;;31.51;35.60;98338.63;4936213;29;20400;-70
2021/07/30 07:52:58;;;;;;;7.50;2.85;;;;;;;30.98;34.29;98337.34;4933112;29;20632;-71
2021/07/30 07:55:24;;;;;;;5.47;2.38;;;;;;;30.79;35.44;98340.34;4928339;29;20096;-71
2021/07/30 07:57:49;;;;;;;5.55;2.63;;;;;;;31.67;33.33;98335.06;4935279;29;20087;-71
2021/07/30 08:00:14;;;;;;;3.73;2.20;;;;;;;33.29;31.43;98332.41;4933837;29;20066;-71
2021/07/30 08:02:40;;;;;;;5.15;2.80;;;;;;;33.93;30.00;98330.03;4933032;29;20280;-72
2021/07/30 08:05:06;;;;;;;5.20;2.20;;;;;;;33.52;31.09;98336.91;4935860;29;20034;-72
2021/07/30 08:07:31;;;;;;;4.15;2.55;;;;;;;33.73;30.17;98340.50;4935220;29;20042;-72
2021/07/30 08:09:56;;;;;;;4.93;2.72;;;;;;;34.75;28.17;98335.13;4932293;29;20027;-72
2021/07/30 08:12:22;;;;;;;4.30;2.72;;;;;;;34.94;27.57;98339.03;4931951;29;20019;-72
2021/07/30 08:14:47;;;;;;;11.27;2.95;;;;;;;34.81;28.58;98333.50;4936065;29;20020;-72
2021/07/30 08:17:14;;;;;;;5.35;3.05;;;;;;;34.50;28.62;98326.59;4934399;29;20026;-72
2021/07/30 08:19:40;;;;;;;2.85;2.47;;;;;;;34.60;28.23;98337.06;4934814;29;20409;-72
2021/07/30 08:22:05;;;;;;;5.70;2.60;;;;;;;32.44;30.88;98333.41;4929990;29;20027;-72
2021/07/30 08:24:31;;;;;;;3.58;2.70;;;;;;;35.01;28.40;98334.56;4931582;29;20035;-72
2021/07/30 08:26:56;;;;;;;3.55;2.42;;;;;;;35.82;27.00;98335.94;4935726;29;20027;-72
2021/07/30 08:29:22;;;;;;;6.10;2.58;;;;;;;34.85;28.28;98334.78;4930983;29;20490;-72
2021/07/30 08:31:47;;;;;;;4.65;2.50;;;;;;;35.81;26.22;98335.13;4934611;29;20034;-72
2021/07/30 08:34:13;;;;;;;5.57;2.97;;;;;;;35.23;27.52;98331.81;4929848;29;20059;-72
2021/07/30 08:36:38;;;;;;;4.80;2.50;;;;;;;35.35;27.32;98332.97;4928867;29;20031;-72
2021/07/30 08:39:04;;;;;;;3.60;2.73;;;;;;;36.65;25.55;98326.75;4931134;29;20028;-72
2021/07/30 08:41:29;;;;;;;4.95;2.75;;;;;;;36.09;26.25;98326.16;4934351;29;20272;-72
2021/07/30 08:43:55;;;;;;;3.40;2.72;;;;;;;36.29;25.28;98327.03;4934820;29;20032;-72
2021/07/30 08:46:26;;;;;;;4.75;2.40;;;;;;;35.82;25.88;98331.38;4931405;29;20023;-72
2021/07/30 08:48:53;;;;;;;4.63;2.95;;;;;;;34.14;27.85;98328.47;4933628;29;20496;-74
2021/07/30 08:51:24;;;;;;;4.38;2.92;;;;;;;33.41;28.88;98330.94;4933965;29;20051;-74
2021/07/30 08:53:50;;;;;;;4.45;2.80;;;;;;;33.60;29.68;98328.75;4935082;29;20389;-74
2021/07/30 08:56:15;;;;;;;5.57;3.25;;;;;;;34.28;28.59;98319.50;4928479;29;20023;-74
2021/07/30 08:58:42;;;;;;;4.70;2.72;;;;;;;34.71;27.44;98314.16;4931177;29;20485;-74
2021/07/30 09:01:10;;;;;;;5.68;2.88;;;;;;;34.81;27.74;98325.44;4934886;29;20099;-74
2021/07/30 09:03:40;;;;;;;7.00;2.83;;;;;;;33.98;28.42;98316.03;4912010;29;20445;-74
2021/07/30 09:06:11;;;;;;;5.18;3.53;;;;;;;32.94;29.79;98317.81;4926248;29;20094;-74
2021/07/30 09:08:37;;;;;;;4.10;3.38;;;;;;;33.86;29.04;98309.47;4904316;29;20464;-72
2021/07/30 09:11:02;;;;;;;3.72;2.72;;;;;;;33.24;30.52;98314.16;4906802;29;20047;-72
2021/07/30 09:13:29;;;;;;;4.15;3.38;;;;;;;33.53;29.72;98307.16;4918075;29;20124;-72
2021/07/30 09:16:09;;;;;;;5.72;3.55;;;;;;;34.23;28.73;98308.47;4914080;29;20050;-72
2021/07/30 09:18:39;;;;;;;5.05;2.97;;;;;;;34.21;29.07;98314.03;4910022;29;20027;-72
2021/07/30 09:21:19;;;;;;;4.05;3.22;;;;;;;33.73;29.04;98302.06;4934216;29;20016;-72
2021/07/30 09:23:50;;;;;;;4.32;3.10;;;;;;;33.93;29.32;98308.50;4933926;29;20397;-72
2021/07/30 09:26:37;;;;;;;3.92;3.17;;;;;;;33.87;28.51;98301.19;4931836;29;20027;-72
2021/07/30 09:29:07;;;;;;;5.00;3.15;;;;;;;33.39;30.24;98306.09;4922845;29;20063;-72
2021/07/30 09:31:44;;;;;;;4.53;3.80;;;;;;;32.11;32.26;98299.75;4929925;29;20500;-72
2021/07/30 09:34:10;;;;;;;5.50;3.13;;;;;;;33.63;29.33;98290.75;4932308;29;20055;-72
2021/07/30 09:36:47;;;;;;;5.87;3.63;;;;;;;33.61;29.36;98292.81;4932796;29;20083;-72
2021/07/30 09:39:13;;;;;;;9.80;3.30;;;;;;;32.98;31.18;98292.28;4930736;29;20035;-72
2021/07/30 09:41:38;;;;;;;6.68;3.50;;;;;;;33.86;29.31;98286.09;4929631;29;20110;-73
2021/07/30 09:44:06;;;;;;;5.53;3.70;;;;;;;34.05;29.27;98287.38;4933376;29;20163;-72
2021/07/30 09:46:31;;;;;;;6.15;3.15;;;;;;;35.32;28.43;98278.63;4934138;29;20038;-73
2021/07/30 09:48:56;;;;;;;4.38;3.50;;;;;;;35.55;26.31;98275.69;4927403;29;20027;-73
2021/07/30 09:51:22;;;;;;;7.35;3.30;;;;;;;34.81;27.94;98274.28;4929778;29;20023;-71
2021/07/30 09:53:47;;;;;;;8.38;3.30;;;;;;;33.46;30.08;98266.78;4929640;29;20019;-72
2021/07/30 09:56:17;;;;;;;4.40;3.05;;;;;;;35.20;28.66;98264.84;4932336;29;20019;-72
2021/07/30 09:58:47;;;;;;;5.97;3.10;;;;;;;34.51;28.51;98258.28;4933587;29;20397;-72
2021/07/30 10:01:18;;;;;;;4.65;3.17;;;;;;;35.49;27.12;98248.50;4930286;29;20023;-71
2021/07/30 10:03:46;;;;;;;4.15;3.45;;;;;;;33.91;31.06;98240.66;4931194;29;20027;-72
2021/07/30 10:06:14;;;;;;;6.53;3.28;;;;;;;34.86;27.99;98236.00;4933841;29;20031;-71
2021/07/30 10:08:41;;;;;;;4.80;3.72;;;;;;;35.85;26.98;98231.22;4925628;29;20031;-71
2021/07/30 10:11:09;;;;;;;3.33;3.03;;;;;;;36.08;27.08;98221.97;4928785;29;20067;-71
2021/07/30 10:13:47;;;;;;;3.72;3.28;;;;;;;35.36;27.80;98223.31;4932462;29;20038;-71
2021/07/30 10:16:14;;;;;;;9.00;3.63;;;;;;;35.33;28.04;98229.09;4930064;29;20032;-71
2021/07/30 10:18:42;;;;;;;3.38;3.05;;;;;;;35.08;27.92;98226.03;4929183;29;20043;-71
2021/07/30 10:21:08;;;;;;;4.50;3.47;;;;;;;34.87;28.92;98219.66;4931926;29;20114;-71
2021/07/30 10:23:38;;;;;;;4.50;3.58;;;;;;;33.92;29.21;98215.44;4928525;29;20405;-71
2021/07/30 10:26:04;;;;;;;4.05;3.67;;;;;;;34.41;28.74;98220.09;4929390;29;20026;-71
2021/07/30 10:28:32;;;;;;;5.00;3.00;;;;;;;33.58;29.19;98217.94;4933392;29;20024;-72
2021/07/30 10:31:06;;;;;;;7.25;3.22;;;;;;;35.79;28.40;98207.75;4930108;29;20110;-72
2021/07/30 10:33:33;;;;;;;4.05;3.67;;;;;;;35.11;27.61;98212.19;4930446;29;20378;-72
2021/07/30 10:36:02;;;;;;;3.72;3.38;;;;;;;34.24;29.15;98198.00;4930563;29;20409;-72
2021/07/30 10:38:28;;;;;;;6.90;3.90;;;;;;;32.84;30.55;98205.31;4918979;29;20039;-73
2021/07/30 10:40:56;;;;;;;6.30;4.03;;;;;;;32.27;31.00;98208.47;4920992;29;20500;-71
2021/07/30 10:43:23;;;;;;;3.78;3.45;;;;;;;33.20;30.10;98204.59;4921426;29;20027;-72
2021/07/30 10:46:10;;;;;;;4.05;3.65;;;;;;;35.16;29.30;98207.03;4922908;29;20119;-72
2021/07/30 10:48:36;;;;;;;6.93;3.45;;;;;;;32.82;31.43;98218.06;4921761;29;20057;-73
2021/07/30 10:51:23;;;;;;;4.85;3.63;;;;;;;30.92;33.53;98223.78;4920227;29;20111;-73
2021/07/30 10:53:49;;;;;;;5.43;4.05;;;;;;;29.15;37.68;98210.72;4918798;29;20789;-73
2021/07/30 10:56:14;;;;;;;16.33;11.32;;;;;;;29.39;37.49;98200.16;4916406;29;20039;-73
2021/07/30 10:58:40;;;;;;;4.47;4.03;;;;;;;30.82;35.39;98196.38;4921883;29;21437;-73
2021/07/30 11:01:32;;;;;;;9.50;4.05;;;;;;;31.81;33.44;98192.31;4919008;29;20051;-72
2021/07/30 11:03:58;;;;;;;8.93;3.97;;;;;;;33.13;31.96;98182.19;4897385;29;20445;-73
2021/07/30 11:06:25;;;;;;;8.45;4.53;;;;;;;34.54;29.01;98181.72;4919943;29;20027;-73
2021/07/30 11:09:00;;;;;;;4.55;3.70;;;;;;;35.82;27.56;98174.97;4921353;29;20038;-73
2021/07/30 11:11:34;;;;;;;7.50;4.20;;;;;;;35.81;28.19;98178.72;4918761;29;20035;-73
2021/07/30 11:14:00;;;;;;;4.75;3.60;;;;;;;36.14;27.70;98181.50;4901863;29;20114;-73
2021/07/30 11:16:25;;;;;;;4.30;3.33;;;;;;;36.98;27.21;98170.06;4908997;29;21287;-73
2021/07/30 11:18:51;;;;;;;6.00;3.90;;;;;;;36.42;26.85;98184.06;4908391;29;20031;-73
2021/07/30 11:21:16;;;;;;;4.70;3.93;;;;;;;35.95;27.57;98185.00;4894875;29;20279;-73
2021/07/30 11:23:44;;;;;;;4.90;3.70;;;;;;;35.43;27.68;98175.66;4898206;29;20271;-73
2021/07/30 11:26:10;;;;;;;6.70;5.97;;;;;;;36.00;27.74;98167.16;4904573;29;20630;-73
2021/07/30 11:28:35;;;;;;;8.35;3.83;;;;;;;35.68;27.98;98173.28;4900054;29;20035;-73
2021/07/30 11:31:01;;;;;;;4.68;3.83;;;;;;;35.53;28.37;98166.19;4902281;29;20036;-75
2021/07/30 11:33:27;;;;;;;4.85;3.53;;;;;;;33.52;31.11;98167.63;4897709;29;20032;-73
2021/07/30 11:35:52;;;;;;;4.78;3.58;;;;;;;31.76;34.06;98173.25;4897067;29;20473;-73
2021/07/30 11:38:17;;;;;;;4.50;3.95;;;;;;;31.64;34.42;98163.97;4902140;29;20144;-72
2021/07/30 11:40:43;;;;;;;7.50;4.67;;;;;;;31.33;34.74;98156.78;4907009;29;20017;-72
2021/07/30 11:43:08;;;;;;;6.70;3.70;;;;;;;31.08;34.94;98163.19;4914557;29;20286;-72
2021/07/30 11:45:34;;;;;;;8.73;4.25;;;;;;;30.02;36.84;98165.94;4921371;29;20103;-72
2021/07/30 11:48:00;;;;;;;4.82;3.88;;;;;;;30.20;38.22;98150.63;4917609;29;20016;-72
2021/07/30 11:50:27;;;;;;;5.78;3.90;;;;;;;31.11;36.41;98147.63;4924193;29;20023;-72
2021/07/30 11:53:02;;;;;;;8.65;4.00;;;;;;;30.94;35.87;98140.66;4927626;29;20110;-72
2021/07/30 11:55:27;;;;;;;4.60;3.67;;;;;;;31.57;34.79;98141.56;4925407;29;20019;-72
2021/07/30 11:57:54;;;;;;;4.22;3.83;;;;;;;31.09;37.52;98138.94;4927322;29;20110;-72
2021/07/30 12:00:26;;;;;;;5.90;3.60;;;;;;;30.96;35.56;98138.66;4927130;29;20059;-72
2021/07/30 12:02:52;;;;;;;5.13;4.15;;;;;;;30.37;37.07;98143.44;4924739;29;20031;-72
2021/07/30 12:05:17;;;;;;;4.93;4.30;;;;;;;30.37;37.39;98143.44;4923511;29;20031;-72
2021/07/30 12:07:43;;;;;;;8.05;3.90;;;;;;;31.43;36.89;98119.91;4928156;29;20110;-72
2021/07/30 12:10:13;;;;;;;4.28;3.88;;;;;;;30.46;37.83;98116.53;4925796;29;21401;-72
2021/07/30 12:12:40;;;;;;;5.05;3.97;;;;;;;30.81;36.99;98114.47;4926278;29;20027;-72
2021/07/30 12:15:08;;;;;;;8.75;6.88;;;;;;;30.26;37.14;98120.53;4928466;29;20370;-72
2021/07/30 12:17:33;;;;;;;6.53;4.72;;;;;;;29.98;38.64;98122.72;4929050;29;20027;-72
2021/07/30 12:20:11;;;;;;;5.90;3.97;;;;;;;29.86;37.67;98116.84;4926784;29;20557;-72
2021/07/30 12:22:42;;;;;;;6.90;5.03;;;;;;;29.98;39.08;98117.38;4927982;29;20167;-72
2021/07/30 12:25:11;;;;;;;5.03;4.57;;;;;;;29.92;38.15;98116.16;4926673;29;20034;-72
2021/07/30 12:27:37;;;;;;;7.53;4.65;;;;;;;28.47;40.57;98107.44;4927987;29;20529;-72
2021/07/30 12:30:04;;;;;;;7.68;5.90;;;;;;;29.14;41.71;98108.47;4932902;29;20074;-72
2021/07/30 12:32:38;;;;;;;4.45;4.03;;;;;;;29.89;39.93;98108.50;4929811;29;20098;-73
2021/07/30 12:35:06;;;;;;;4.72;4.25;;;;;;;29.78;38.34;98106.13;4931044;29;20028;-73
2021/07/30 12:37:33;;;;;;;9.87;4.90;;;;;;;30.20;37.99;98105.19;4932199;29;20090;-73
2021/07/30 12:40:00;;;;;;;7.82;5.22;;;;;;;30.93;36.23;98097.00;4930911;29;20568;-73
2021/07/30 12:42:28;;;;;;;6.60;4.07;;;;;;;30.64;36.76;98096.75;4934478;29;20052;-73
2021/07/30 12:45:02;;;;;;;6.38;4.60;;;;;;;29.62;38.64;98096.28;4934425;29;20110;-73
2021/07/30 12:47:28;;;;;;;7.63;4.07;;;;;;;30.22;38.74;98087.16;4931655;29;20114;-73
2021/07/30 12:49:53;;;;;;;7.45;4.45;;;;;;;29.96;38.94;98088.13;4932764;29;20057;-72
2021/07/30 12:52:19;;;;;;;4.68;4.22;;;;;;;29.63;38.84;98091.78;4935315;29;20051;-72
2021/07/30 12:54:45;;;;;;;4.60;3.90;;;;;;;29.60;39.25;98082.28;4931712;29;20032;-72
2021/07/30 12:57:10;;;;;;;4.75;4.07;;;;;;;29.61;38.92;98083.09;4934242;29;20417;-72
2021/07/30 12:59:55;;;;;;;12.65;4.97;;;;;;;28.33;42.23;98076.84;4935283;29;20619;-72
2021/07/30 13:02:26;;;;;;;8.05;4.15;;;;;;;29.36;39.62;98069.69;4932555;29;20481;-72
2021/07/30 13:04:53;;;;;;;10.85;5.10;;;;;;;30.04;38.85;98057.06;4934708;29;20086;-72
2021/07/30 13:07:20;;;;;;;4.95;4.38;;;;;;;28.92;39.38;98055.69;4934712;29;20027;-72
2021/07/30 13:09:47;;;;;;;5.78;3.90;;;;;;;29.73;38.84;98057.72;4918615;29;20025;-72
2021/07/30 13:12:12;;;;;;;32.72;25.17;;;;;;;29.97;38.84;98046.19;4917644;29;20028;-72
2021/07/30 13:14:38;;;;;;;5.80;4.85;;;;;;;29.92;38.56;98049.38;4918001;29;20028;-72
2021/07/30 13:17:03;;;;;;;7.57;5.25;;;;;;;29.91;39.11;98047.72;4949128;29;20433;-72
2021/07/30 13:19:28;;;;;;;9.38;4.50;;;;;;;28.51;40.88;98036.00;4934973;29;20483;-72
2021/07/30 13:21:54;;;;;;;13.55;4.85;;;;;;;29.17;41.15;98033.44;4933502;29;20024;-72
2021/07/30 13:24:23;;;;;;;6.93;4.78;;;;;;;30.11;38.88;98025.97;4934831;29;20074;-72
2021/07/30 13:26:50;;;;;;;5.90;4.78;;;;;;;29.92;39.76;98022.66;4934892;29;20028;-72
2021/07/30 13:29:16;;;;;;;8.10;4.85;;;;;;;29.50;39.81;98016.66;4934846;29;20487;-72
2021/07/30 13:31:41;;;;;;;21.08;14.77;;;;;;;29.82;40.41;98011.31;4935063;29;20043;-72
2021/07/30 13:34:07;;;;;;;6.82;4.38;;;;;;;30.19;38.55;98012.66;4936326;29;20032;-72
2021/07/30 13:36:32;;;;;;;6.72;4.43;;;;;;;29.70;39.55;97999.31;4936561;29;20385;-72
2021/07/30 13:38:57;;;;;;;7.70;4.53;;;;;;;29.65;39.16;97993.66;4936456;29;20032;-72
2021/07/30 13:41:23;;;;;;;7.97;5.03;;;;;;;29.14;39.19;98000.91;4936202;29;20031;-73
2021/07/30 13:43:48;;;;;;;9.52;4.32;;;;;;;28.88;42.17;97996.50;4935312;29;20108;-72
2021/07/30 13:46:14;;;;;;;4.38;3.97;;;;;;;29.78;40.02;97982.44;4936485;29;20510;-72
2021/07/30 13:48:39;;;;;;;9.40;5.15;;;;;;;29.95;38.89;97982.25;4936799;29;20434;-72
2021/07/30 13:51:05;;;;;;;11.85;7.80;;;;;;;29.63;39.43;97976.94;4935943;29;20059;-72
2021/07/30 13:53:34;;;;;;;13.63;4.45;;;;;;;29.58;40.49;97969.44;4936375;29;20485;-72
2021/07/30 13:56:00;;;;;;;7.28;4.60;;;;;;;29.16;39.61;97964.25;4934995;29;20304;-72
2021/07/30 13:58:26;;;;;;;5.35;4.80;;;;;;;29.44;40.71;97965.56;4936226;29;20110;-72
2021/07/30 14:00:53;;;;;;;5.45;4.35;;;;;;;29.42;40.19;97958.75;4935936;29;20030;-72
2021/07/30 14:03:18;;;;;;;4.90;4.45;;;;;;;29.52;39.44;97961.25;4935798;29;20070;-72
2021/07/30 14:05:45;;;;;;;5.95;4.60;;;;;;;29.61;40.06;97952.25;4936150;29;20051;-72
2021/07/30 14:08:12;;;;;;;7.60;4.95;;;;;;;28.58;40.90;97957.91;4936173;29;20038;-72
2021/07/30 14:10:37;;;;;;;6.97;4.82;;;;;;;29.35;40.33;97961.25;4935798;29;20028;-72
2021/07/30 14:13:03;;;;;;;6.53;4.53;;;;;;;29.94;39.25;97950.38;4935836;29;20392;-72
2021/07/30 14:15:31;;;;;;;29.73;22.48;;;;;;;30.05;39.10;97951.84;4936008;29;20082;-73
2021/07/30 14:17:56;;;;;;;10.25;8.13;;;;;;;30.27;39.82;97956.50;4936208;29;20409;-73
2021/07/30 14:20:21;;;;;;;7.82;4.57;;;;;;;30.01;39.13;97953.19;4935842;29;20083;-73
2021/07/30 14:22:47;;;;;;;6.43;4.03;;;;;;;29.95;39.62;97949.38;4935633;29;20070;-73
2021/07/30 14:25:12;;;;;;;7.40;4.50;;;;;;;30.09;38.55;97943.31;4935670;29;20032;-73
2021/07/30 14:27:37;;;;;;;4.75;4.22;;;;;;;30.17;38.22;97945.16;4935580;29;20023;-73
2021/07/30 14:30:04;;;;;;;5.07;4.00;;;;;;;29.83;39.50;97948.03;4935324;29;20031;-73
2021/07/30 14:32:30;;;;;;;5.60;4.75;;;;;;;29.55;39.85;97944.94;4935032;29;20026;-73
2021/07/30 14:34:55;;;;;;;4.97;4.32;;;;;;;29.74;38.91;97949.06;4935440;29;20031;-72
2021/07/30 14:37:20;;;;;;;4.88;4.35;;;;;;;29.81;39.50;97948.22;4935432;29;20059;-72
2021/07/30 14:39:46;;;;;;;7.10;4.47;;;;;;;29.45;41.12;97961.94;4935321;29;20489;-72
2021/07/30 14:42:11;;;;;;;4.55;4.15;;;;;;;29.20;39.89;97954.88;4935186;29;20039;-72
2021/07/30 14:44:38;;;;;;;7.45;4.90;;;;;;;28.66;41.17;97949.91;4935416;29;20035;-72
2021/07/30 14:47:03;;;;;;;8.25;5.18;;;;;;;29.39;40.73;97949.22;4935087;29;20024;-72
2021/07/30 14:49:28;;;;;;;7.20;4.93;;;;;;;29.76;39.52;97947.91;4935208;29;20027;-71
2021/07/30 14:51:54;;;;;;;6.10;4.20;;;;;;;29.62;39.94;97940.56;4934993;29;20110;-72
2021/07/30 14:54:20;;;;;;;5.05;4.30;;;;;;;29.54;40.72;97938.72;4934985;29;20130;-72
2021/07/30 14:56:45;;;;;;;5.43;4.90;;;;;;;29.71;40.53;97928.88;4935123;29;20070;-72
2021/07/30 14:59:11;;;;;;;5.60;5.00;;;;;;;29.79;41.22;97926.22;4935110;29;20028;-72
2021/07/30 15:01:36;;;;;;;17.90;11.90;;;;;;;30.01;39.82;97918.47;4934820;29;20385;-72
2021/07/30 15:04:02;;;;;;;9.68;6.75;;;;;;;29.97;39.82;97912.63;4934694;29;20036;-71
2021/07/30 15:06:27;;;;;;;8.40;4.10;;;;;;;29.90;39.83;97914.31;4935034;29;20031;-73
2021/07/30 15:08:56;;;;;;;5.30;4.55;;;;;;;30.03;38.75;97911.13;4934857;29;20054;-73
2021/07/30 15:11:22;;;;;;;5.10;4.20;;;;;;;29.56;41.14;97912.72;4934718;29;20107;-71
2021/07/30 15:13:47;;;;;;;6.38;4.50;;;;;;;30.18;39.94;97914.78;4934995;29;20481;-71
2021/07/30 15:16:12;;;;;;;8.63;5.10;;;;;;;29.33;41.42;97909.88;4934877;29;20540;-71
2021/07/30 15:18:38;;;;;;;7.85;4.40;;;;;;;29.43;41.44;97909.69;4934934;29;20039;-71
2021/07/30 15:21:04;;;;;;;5.85;4.10;;;;;;;29.99;39.81;97915.13;4934638;29;20470;-72
2021/07/30 15:23:32;;;;;;;5.90;4.57;;;;;;;30.25;39.85;97913.06;4934751;29;20023;-72
2021/07/30 15:25:57;;;;;;;5.47;3.97;;;;;;;29.77;40.46;97920.19;4934912;29;20020;-71
2021/07/30 15:28:22;;;;;;;5.97;4.40;;;;;;;29.70;40.02;97924.56;4934761;29;20385;-71
2021/07/30 15:30:48;;;;;;;7.00;4.53;;;;;;;30.01;40.33;97923.81;4934495;29;20075;-72
2021/07/30 15:33:13;;;;;;;5.97;4.70;;;;;;;29.99;39.38;97925.81;4934520;29;20082;-72
2021/07/30 15:35:39;;;;;;;8.75;6.35;;;;;;;30.13;39.88;97938.50;4934709;29;20047;-71
2021/07/30 15:38:05;;;;;;;13.30;4.90;;;;;;;28.89;41.82;97934.16;4934615;29;20187;-75
2021/07/30 15:40:31;;;;;;;6.80;4.95;;;;;;;28.94;42.56;97937.19;4934613;29;20543;-71
2021/07/30 15:42:56;;;;;;;7.32;4.45;;;;;;;28.46;43.62;97927.22;4934553;29;20106;-71
2021/07/30 15:45:21;;;;;;;4.65;4.25;;;;;;;28.06;44.46;97928.69;4933439;29;20496;-71